Time;durP1;ratioP1;P1;durP2;ratioP2;P2;SDS_P1;SDS_P2;PMS_P1;PMS_P2;Temp;Humidity;BMP_temperature;BMP_pressure;BME280_temperature;BME280_humidity;BME280_pressure;Samples;Min_cycle;Max_cycle;Signal;HPM_P1;HPM_P2
2022/04/28 05:13:13;;;;;;;13.73;2.67;;;;;;;11.95;100.00;102190.78;5002946;23;20037;-81
2022/04/28 05:20:50;;;;;;;18.88;3.15;;;;;;;12.58;100.00;102442.78;5236202;23;20109;-82
2022/04/28 05:46:32;;;;;;;12.00;2.70;;;;;;;9.23;100.00;102237.00;5753886;23;20064;-83
2022/04/28 05:48:58;;;;;;;13.30;3.03;;;;;;;10.35;100.00;102432.63;4917858;29;20028;-80
2022/04/28 05:51:23;;;;;;;12.55;2.30;;;;;;;10.27;100.00;102436.09;4920639;29;20100;-83
2022/04/28 05:58:59;;;;;;;15.23;2.95;;;;;;;8.52;100.00;102167.22;5719733;23;20053;-83
2022/04/28 06:01:24;;;;;;;12.80;2.63;;;;;;;10.10;100.00;102410.06;4901148;29;20037;-81
2022/04/28 06:03:50;;;;;;;13.48;2.75;;;;;;;9.58;100.00;102335.53;4989268;23;20963;-81
2022/04/28 06:06:17;;;;;;;16.83;2.83;;;;;;;10.33;100.00;102456.13;4918525;29;20013;-82
2022/04/28 06:21:38;;;;;;;15.38;2.75;;;;;;;8.91;100.00;102312.72;5867332;23;20011;-84
2022/04/28 06:24:04;;;;;;;15.73;3.00;;;;;;;10.02;100.00;102466.47;5037501;23;20121;-84
2022/04/28 06:39:25;;;;;;;15.40;2.63;;;;;;;9.98;100.00;102457.03;5678354;23;20044;-81
2022/04/28 06:44:26;;;;;;;17.95;3.10;;;;;;;8.58;100.00;102257.84;4900422;29;19928;-83
2022/04/28 06:49:26;;;;;;;22.00;3.03;;;;;;;8.38;100.00;102207.00;5092245;23;20055;-82
2022/04/28 06:51:52;;;;;;;17.35;3.22;;;;;;;8.91;100.00;102286.72;4921112;29;20052;-83
2022/04/28 06:59:21;;;;;;;15.32;3.05;;;;;;;10.51;100.00;102461.50;5068963;23;20071;-83
2022/04/28 07:01:47;;;;;;;12.35;2.63;;;;;;;10.61;100.00;102442.53;4879510;29;20060;-81
2022/04/28 07:04:12;;;;;;;12.30;2.92;;;;;;;10.53;100.00;102452.25;4899805;29;20029;-82
2022/04/28 07:06:38;;;;;;;16.80;3.15;;;;;;;10.73;100.00;102468.19;4900198;29;20037;-83
2022/04/28 07:09:03;;;;;;;15.45;2.95;;;;;;;10.77;100.00;102469.56;4901061;29;20041;-84
2022/04/28 07:11:28;;;;;;;16.08;3.30;;;;;;;10.56;100.00;102453.78;4902698;29;20084;-83
2022/04/28 07:13:54;;;;;;;17.15;3.00;;;;;;;10.22;100.00;102430.31;4901026;29;20017;-82
2022/04/28 07:16:19;;;;;;;20.02;3.78;;;;;;;10.41;100.00;102469.66;4901399;29;20021;-82
2022/04/28 07:21:20;;;;;;;15.60;3.25;;;;;;;10.38;100.00;102464.59;5608063;23;20049;-83
2022/04/28 07:23:45;;;;;;;15.93;3.08;;;;;;;9.89;100.00;102392.41;4916740;29;20112;-84
2022/04/28 07:26:10;;;;;;;18.27;3.28;;;;;;;10.25;100.00;102467.66;4900036;29;20017;-84
2022/04/28 07:28:36;;;;;;;17.35;2.97;;;;;;;8.84;100.00;102245.38;5659862;23;20015;-73
2022/04/28 07:31:04;;;;;;;20.13;4.13;;;;;;;8.40;100.00;102190.72;4881735;29;20049;-84
2022/04/28 07:33:30;;;;;;;16.63;3.58;;;;;;;10.27;100.00;102473.78;4883767;29;20060;-82
2022/04/28 07:35:55;;;;;;;16.60;3.55;;;;;;;10.43;100.00;102466.81;4873637;29;20014;-83
2022/04/28 07:40:55;;;;;;;17.85;3.50;;;;;;;10.60;100.00;102474.00;5731965;23;20064;-82
2022/04/28 07:43:21;;;;;;;15.80;3.25;;;;;;;10.57;100.00;102464.41;4912101;29;20097;-81
2022/04/28 07:45:48;;;;;;;16.63;3.30;;;;;;;10.32;100.00;102447.22;4910999;29;20033;-81
2022/04/28 07:50:50;;;;;;;17.13;3.00;;;;;;;10.01;100.00;102452.16;5927840;23;20150;-82
2022/04/28 07:53:16;;;;;;;17.80;3.20;;;;;;;10.23;100.00;102472.38;4861115;29;20030;-83
2022/04/28 07:55:41;;;;;;;14.68;3.47;;;;;;;10.46;100.00;102477.25;4881563;29;20029;-83
2022/04/28 07:58:07;;;;;;;18.63;3.13;;;;;;;10.50;100.00;102479.50;4885814;29;20037;-82
2022/04/28 08:00:33;;;;;;;21.95;3.53;;;;;;;10.47;100.00;102478.97;4886731;29;20022;-84
2022/04/28 08:02:59;;;;;;;18.60;3.25;;;;;;;10.31;100.00;102472.44;4886038;29;20044;-83
2022/04/28 08:05:25;;;;;;;13.57;2.80;;;;;;;10.30;100.00;102483.38;4886849;29;20028;-83
2022/04/28 08:07:50;;;;;;;17.20;3.08;;;;;;;10.16;100.00;102465.91;4884382;29;20318;-83
2022/04/28 08:10:16;;;;;;;19.60;3.67;;;;;;;10.19;100.00;102483.56;4886637;29;20034;-79
2022/04/28 08:12:41;;;;;;;16.95;3.22;;;;;;;9.92;100.00;102471.91;4868757;29;20070;-83
2022/04/28 08:17:41;;;;;;;17.77;3.17;;;;;;;9.81;100.00;102490.97;5029847;23;20045;-83
2022/04/28 08:20:07;;;;;;;20.95;3.47;;;;;;;9.76;100.00;102477.97;4899451;29;20426;-80
2022/04/28 08:22:33;;;;;;;15.77;2.72;;;;;;;9.77;100.00;102493.13;4897514;29;20085;-82
2022/04/28 08:24:58;;;;;;;18.10;3.67;;;;;;;9.88;100.00;102483.97;4904983;29;20044;-83
2022/04/28 08:27:25;;;;;;;16.70;3.38;;;;;;;9.83;100.00;102494.34;4888312;29;20014;-82
2022/04/28 08:35:01;;;;;;;20.73;2.88;;;;;;;9.68;100.00;102471.69;5497626;23;20033;-82
2022/04/28 08:47:48;;;;;;;21.77;2.97;;;;;;;9.06;100.00;102398.97;5395005;23;20353;-79
2022/04/28 08:50:15;;;;;;;14.73;3.72;;;;;;;9.76;100.00;102514.78;4906795;29;20033;-80
2022/04/28 08:55:16;;;;;;;17.60;2.72;;;;;;;8.13;100.00;102226.41;5501778;23;20031;-82
2022/04/28 08:57:42;;;;;;;19.20;3.67;;;;;;;9.07;100.00;102397.97;4918878;29;20093;-80
2022/04/28 09:00:08;;;;;;;12.05;3.00;;;;;;;9.86;100.00;102515.53;4909234;29;20119;-79
2022/04/28 09:02:34;;;;;;;14.32;2.95;;;;;;;9.68;100.00;102487.81;4914499;29;20110;-81
2022/04/28 09:05:04;;;;;;;20.08;3.65;;;;;;;9.87;100.00;102514.56;4919234;29;20028;-81
2022/04/28 09:07:41;;;;;;;16.42;3.25;;;;;;;10.01;100.00;102510.50;5209256;23;20463;-82
2022/04/28 09:12:55;;;;;;;20.15;3.10;;;;;;;9.95;100.00;102495.81;5626611;23;20056;-81
2022/04/28 09:15:21;;;;;;;14.30;2.75;;;;;;;10.10;100.00;102509.59;4904037;29;20061;-79
2022/04/28 09:17:47;;;;;;;21.35;3.00;;;;;;;10.11;100.00;102512.09;4916696;29;20058;-81
2022/04/28 09:22:52;;;;;;;21.67;2.92;;;;;;;8.98;100.00;102348.72;5804298;23;20059;-83
2022/04/28 09:25:20;;;;;;;14.70;2.58;;;;;;;9.31;100.00;102427.81;4903161;29;20041;-80
2022/04/28 09:27:50;;;;;;;21.90;4.07;;;;;;;9.94;100.00;102517.50;4896176;29;20021;-82
2022/04/28 09:30:16;;;;;;;23.70;4.32;;;;;;;10.15;100.00;102512.63;4891297;29;20013;-77
2022/04/28 09:32:41;;;;;;;15.65;3.15;;;;;;;10.06;100.00;102500.94;4891259;29;20025;-82
2022/04/28 09:35:08;;;;;;;15.48;2.70;;;;;;;10.15;100.00;102514.50;4899484;29;20101;-81
2022/04/28 09:37:39;;;;;;;13.82;2.92;;;;;;;10.06;100.00;102470.53;4895393;29;20085;-78
2022/04/28 09:42:50;;;;;;;13.48;2.83;;;;;;;10.31;100.00;102507.44;4880037;29;20041;-78
2022/04/28 09:45:20;;;;;;;17.73;3.13;;;;;;;10.27;100.00;102489.91;4892464;29;20056;-82
2022/04/28 09:47:45;;;;;;;19.75;3.30;;;;;;;10.39;100.00;102498.56;4894997;29;20025;-80
2022/04/28 09:50:15;;;;;;;14.63;2.33;;;;;;;10.51;100.00;102499.19;4890411;29;20029;-80
2022/04/28 09:52:43;;;;;;;17.00;3.65;;;;;;;10.53;100.00;102500.72;4889361;29;20040;-80
2022/04/28 09:55:10;;;;;;;10.95;2.45;;;;;;;10.56;100.00;102504.91;4894393;29;20032;-80
2022/04/28 09:57:35;;;;;;;14.93;2.75;;;;;;;10.61;100.00;102504.47;4892923;29;20061;-81
2022/04/28 10:00:01;;;;;;;15.52;3.53;;;;;;;10.48;100.00;102512.94;4893996;29;20040;-81
2022/04/28 10:05:05;;;;;;;13.48;2.65;;;;;;;10.55;100.00;102508.63;4953687;23;20053;-82
2022/04/28 10:07:36;;;;;;;15.27;2.75;;;;;;;10.53;100.00;102506.09;4910079;29;20017;-83
2022/04/28 10:10:02;;;;;;;13.88;2.70;;;;;;;10.38;100.00;102494.19;4900424;29;20009;-83
2022/04/28 10:12:28;;;;;;;14.68;2.83;;;;;;;9.93;100.00;102429.72;4907929;29;20096;-83
2022/04/28 10:14:55;;;;;;;11.27;2.53;;;;;;;10.37;100.00;102502.44;4901996;29;20033;-82
2022/04/28 10:17:35;;;;;;;16.05;2.90;;;;;;;10.44;100.00;102506.19;4893313;29;20036;-82
2022/04/28 10:20:10;;;;;;;11.60;2.45;;;;;;;10.53;100.00;102505.25;5448080;23;20029;-84
2022/04/28 10:22:36;;;;;;;13.20;2.72;;;;;;;9.68;100.00;102324.69;5228937;23;20789;-83
2022/04/28 10:33:44;;;;;;;10.85;2.60;;;;;;;11.07;100.00;102503.22;4908333;29;20044;-80
2022/04/28 10:36:20;;;;;;;14.35;2.10;;;;;;;11.42;100.00;102515.69;4908243;29;20028;-81
2022/04/28 10:39:07;;;;;;;11.65;2.40;;;;;;;11.36;100.00;102508.25;4910361;29;20040;-81
2022/04/28 10:41:33;;;;;;;9.38;1.88;;;;;;;11.04;100.00;102519.69;4908798;29;20048;-80
2022/04/28 10:44:00;;;;;;;9.27;1.60;;;;;;;11.02;100.00;102514.47;4910367;29;20039;-80
2022/04/28 10:46:30;;;;;;;6.95;1.88;;;;;;;10.96;100.00;102512.44;4910225;29;20041;-81
2022/04/28 10:49:02;;;;;;;6.25;1.60;;;;;;;11.01;100.00;102518.16;4913028;29;20032;-80
2022/04/28 10:51:33;;;;;;;7.65;1.83;;;;;;;10.71;100.00;102491.75;4913270;29;20039;-81
2022/04/28 10:54:11;;;;;;;5.53;1.50;;;;;;;10.62;100.00;102509.66;4905592;29;20068;-78
2022/04/28 10:56:39;;;;;;;4.03;1.30;;;;;;;10.54;100.00;102523.94;4894103;29;20501;-78
2022/04/28 10:59:43;;;;;;;4.57;1.38;;;;;;;10.55;100.00;102522.91;4897999;29;20047;-79
2022/04/28 11:02:11;;;;;;;6.70;1.52;;;;;;;10.62;100.00;102528.50;4893284;29;20036;-79
2022/04/28 11:04:39;;;;;;;6.95;1.88;;;;;;;10.55;100.00;102522.91;4898052;29;20592;-78
2022/04/28 11:07:16;;;;;;;5.03;1.58;;;;;;;10.63;100.00;102524.84;4898735;29;20031;-78
2022/04/28 11:09:44;;;;;;;2.67;1.38;;;;;;;10.50;100.00;102532.47;4897646;29;20024;-79
2022/04/28 11:12:18;;;;;;;3.17;1.02;;;;;;;10.44;100.00;102533.94;4897424;29;20463;-78
2022/04/28 11:14:49;;;;;;;2.65;1.02;;;;;;;10.52;100.00;102535.84;4898384;29;20032;-79
2022/04/28 11:17:16;;;;;;;3.78;0.90;;;;;;;10.56;100.00;102526.44;4897409;29;20151;-78
2022/04/28 11:19:43;;;;;;;2.60;1.00;;;;;;;10.52;100.00;102523.22;4901540;29;20530;-79
2022/04/28 11:22:11;;;;;;;1.98;0.93;;;;;;;10.30;100.00;102492.28;4901062;29;20048;-78
2022/04/28 11:24:47;;;;;;;4.82;1.00;;;;;;;10.47;100.00;102520.19;4903077;29;20067;-79
2022/04/28 11:27:19;;;;;;;3.65;1.05;;;;;;;10.64;100.00;102523.00;4903658;29;20032;-79
2022/04/28 11:29:46;;;;;;;2.55;1.00;;;;;;;10.91;100.00;102527.38;4908331;29;20119;-78
2022/04/28 11:32:14;;;;;;;4.15;1.05;;;;;;;10.87;100.00;102505.31;4904865;29;20028;-78
2022/04/28 11:34:41;;;;;;;2.40;0.70;;;;;;;11.04;100.00;102515.16;4900246;29;20028;-79
2022/04/28 11:37:17;;;;;;;4.05;0.82;;;;;;;11.21;100.00;102523.31;4902113;29;20387;-79
2022/04/28 11:39:47;;;;;;;2.72;0.68;;;;;;;11.48;100.00;102520.41;4882357;29;20043;-78
2022/04/28 11:42:16;;;;;;;6.53;0.75;;;;;;;11.55;100.00;102520.59;4894370;29;20044;-79
2022/04/28 11:44:52;;;;;;;2.67;0.70;;;;;;;11.40;100.00;102525.78;4902105;29;20037;-78
2022/04/28 11:47:19;;;;;;;3.38;1.00;;;;;;;11.03;100.00;102529.63;4895746;29;20032;-78
2022/04/28 11:49:44;;;;;;;2.85;1.20;;;;;;;10.87;100.00;102537.63;4901032;29;20063;-79
2022/04/28 11:52:25;;;;;;;3.40;1.00;;;;;;;10.88;100.00;102530.38;4900984;29;20412;-79
2022/04/28 11:54:52;;;;;;;2.58;1.10;;;;;;;10.93;100.00;102549.63;4901674;29;20020;-79
2022/04/28 11:57:18;;;;;;;4.25;1.30;;;;;;;10.92;100.00;102543.34;4901763;29;20041;-78
2022/04/28 11:59:44;;;;;;;2.72;1.20;;;;;;;11.06;100.00;102550.03;4901800;29;20028;-79
2022/04/28 12:02:30;;;;;;;2.42;0.93;;;;;;;11.13;100.00;102544.84;4890378;29;20111;-79
2022/04/28 12:04:57;;;;;;;3.03;0.93;;;;;;;11.34;100.00;102544.44;4902086;29;20043;-79
2022/04/28 12:07:31;;;;;;;3.50;0.90;;;;;;;11.08;100.00;102549.84;4885100;29;20347;-79
2022/04/28 12:15:27;;;;;;;3.38;0.77;;;;;;;11.03;100.00;102558.44;4910016;29;20136;-81
2022/04/28 12:20:31;;;;;;;2.25;0.73;;;;;;;10.05;100.00;102372.03;5629717;23;20033;-82
2022/04/28 12:22:56;;;;;;;3.85;0.60;;;;;;;9.89;100.00;102335.09;4887920;29;20048;-79
2022/04/28 12:25:23;;;;;;;4.82;0.70;;;;;;;10.79;100.00;102492.66;4883093;29;20029;-80
2022/04/28 12:27:53;;;;;;;1.45;0.40;;;;;;;11.03;100.00;102529.63;4886197;29;20088;-81
2022/04/28 12:30:19;;;;;;;3.00;0.43;;;;;;;11.10;100.00;102523.63;4882290;29;20478;-78
2022/04/28 12:32:51;;;;;;;1.55;0.63;;;;;;;11.10;100.00;102539.78;4888733;29;20744;-78
2022/04/28 12:35:32;;;;;;;2.65;0.80;;;;;;;11.11;100.00;102531.53;4884695;29;20116;-79
2022/04/28 12:38:08;;;;;;;1.70;0.40;;;;;;;11.02;100.00;102500.16;4881540;29;20029;-79
2022/04/28 12:40:37;;;;;;;1.30;0.40;;;;;;;11.18;100.00;102527.19;4884106;29;20033;-78
2022/04/28 12:43:03;;;;;;;2.53;0.50;;;;;;;11.16;100.00;102521.13;4887356;29;20017;-79
2022/04/28 12:45:34;;;;;;;1.48;0.40;;;;;;;11.15;100.00;102540.97;4883300;29;20045;-79
2022/04/28 12:48:00;;;;;;;2.00;0.40;;;;;;;11.18;100.00;102515.56;4896430;29;20053;-79
2022/04/28 12:50:26;;;;;;;4.68;0.50;;;;;;;11.38;100.00;102529.63;4882604;29;20129;-79
2022/04/28 12:52:52;;;;;;;1.90;0.43;;;;;;;11.34;100.00;102530.97;4882564;29;20097;-79
2022/04/28 12:55:19;;;;;;;1.70;0.40;;;;;;;11.38;100.00;102537.72;4881915;29;20409;-78
2022/04/28 12:57:49;;;;;;;3.00;0.52;;;;;;;11.25;100.00;102524.69;4883082;29;20049;-80
2022/04/28 13:00:18;;;;;;;3.03;0.70;;;;;;;11.34;100.00;102530.97;4882609;29;20029;-78
2022/04/28 15:29:58;;;;;;;1.58;0.35;;;;;;;10.92;100.00;102478.72;5863744;23;20014;-83
2022/04/28 15:32:23;;;;;;;2.15;0.47;;;;;;;11.32;100.00;102544.59;4901270;29;20041;-81
2022/04/28 15:34:49;;;;;;;1.98;0.40;;;;;;;11.30;100.00;102546.63;4896299;29;20033;-81
2022/04/28 15:37:15;;;;;;;3.10;0.35;;;;;;;11.36;100.00;102555.91;4900961;29;20048;-82
2022/04/28 15:39:41;;;;;;;1.80;0.40;;;;;;;11.32;100.00;102539.19;4902545;29;20080;-82
2022/04/28 15:42:06;;;;;;;3.30;0.60;;;;;;;11.40;100.00;102557.28;4901613;29;20041;-85
2022/04/28 16:18:09;;;;;;;1.23;0.40;;;;;;;9.66;100.00;102315.94;5933531;23;20059;-81
2022/04/28 16:20:36;;;;;;;1.85;0.40;;;;;;;10.24;100.00;102376.34;4878402;29;20040;-80
2022/04/28 16:23:03;;;;;;;3.85;0.70;;;;;;;9.56;100.00;102272.19;4873576;29;20085;-82
2022/04/28 16:25:29;;;;;;;4.88;0.63;;;;;;;10.48;100.00;102407.97;4875379;29;20032;-83
2022/04/28 17:04:17;;;;;;;2.15;0.60;;;;;;;11.63;100.00;102549.44;5926483;23;20043;-78
2022/04/28 17:17:19;;;;;;;4.45;0.50;;;;;;;11.53;100.00;102547.72;5244838;23;20103;31
2022/04/28 17:22:20;;;;;;;4.53;0.52;;;;;;;11.37;100.00;102544.13;5184869;24;20082;-82
2022/04/28 17:27:12;;;;;;;3.05;0.70;;;;;;;10.88;100.00;102476.53;4878630;29;20045;-84
2022/04/28 17:29:38;;;;;;;3.63;0.50;;;;;;;11.47;100.00;102547.53;4884842;29;20073;-84
2022/04/28 17:32:07;;;;;;;2.50;0.65;;;;;;;11.32;100.00;102527.56;5296796;23;20057;-77
2022/04/28 17:34:33;;;;;;;4.00;0.77;;;;;;;11.42;100.00;102549.84;4880748;29;20068;-80
2022/04/28 17:37:02;;;;;;;1.23;0.55;;;;;;;10.90;100.00;102479.91;4879470;29;20065;-80
2022/04/28 17:39:28;;;;;;;3.13;0.60;;;;;;;11.42;100.00;102553.41;4879914;29;20040;-81
2022/04/28 17:41:54;;;;;;;3.35;0.82;;;;;;;11.45;100.00;102554.91;4880000;29;20058;-80
2022/04/28 17:44:21;;;;;;;3.38;0.30;;;;;;;11.17;100.00;102500.41;4880135;29;20029;-79
2022/04/28 17:46:47;;;;;;;2.85;0.60;;;;;;;11.50;100.00;102553.44;4879803;29;20039;-80
2022/04/28 17:49:13;;;;;;;2.55;0.70;;;;;;;11.49;100.00;102545.53;4882509;29;20037;-80
2022/04/28 17:51:40;;;;;;;2.22;0.70;;;;;;;11.47;100.00;102551.06;4885596;29;20035;-79
2022/04/28 17:54:07;;;;;;;2.92;0.52;;;;;;;11.34;100.00;102542.59;4879905;29;20100;-80
2022/04/28 18:02:01;;;;;;;3.30;0.70;;;;;;;11.56;100.00;102540.31;4880798;29;20128;-82
2022/04/28 18:04:27;;;;;;;3.75;0.80;;;;;;;11.52;100.00;102545.19;4878338;29;20040;-81
2022/04/28 18:06:53;;;;;;;3.58;1.17;;;;;;;11.48;100.00;102547.34;4877601;29;20084;-81
2022/04/28 18:09:18;;;;;;;2.17;0.70;;;;;;;11.37;100.00;102542.25;4888594;29;20040;-83
2022/04/28 18:11:44;;;;;;;5.18;0.73;;;;;;;11.38;100.00;102535.84;4893274;29;20033;-83
2022/04/28 18:14:10;;;;;;;3.78;0.77;;;;;;;11.19;100.00;102512.72;4899531;29;20081;-81
2022/04/28 18:16:36;;;;;;;4.28;0.60;;;;;;;10.72;100.00;102437.72;5210261;23;20019;-81
2022/04/28 18:19:02;;;;;;;5.10;0.70;;;;;;;9.58;100.00;102278.25;4901242;29;20077;-82
2022/04/28 18:21:28;;;;;;;4.38;0.80;;;;;;;9.54;100.00;102263.47;4926684;23;20056;-80
2022/04/28 18:23:54;;;;;;;3.85;0.60;;;;;;;11.25;100.00;102557.03;4886114;29;20025;-81
2022/04/28 18:26:20;;;;;;;5.63;0.80;;;;;;;11.29;100.00;102564.63;4892986;29;20036;-81
2022/04/28 18:28:46;;;;;;;4.50;0.88;;;;;;;11.23;100.00;102565.28;4880944;29;20021;-80
2022/04/28 18:31:13;;;;;;;3.00;0.90;;;;;;;11.10;100.00;102555.94;4881542;29;20475;-80
2022/04/28 18:33:38;;;;;;;6.07;1.10;;;;;;;11.02;100.00;102554.03;4870123;29;20077;-79
2022/04/28 18:44:27;;;;;;;3.90;0.82;;;;;;;10.75;100.00;102577.41;4879775;29;20121;-79
2022/04/28 18:46:55;;;;;;;5.25;0.80;;;;;;;10.55;100.00;102578.59;4877509;29;20459;-79
2022/04/28 18:49:20;;;;;;;2.92;0.70;;;;;;;10.46;100.00;102582.22;4879490;29;20104;-79
2022/04/28 18:51:48;;;;;;;4.00;1.05;;;;;;;10.38;100.00;102566.84;4879044;29;20033;-79
2022/04/28 18:54:16;;;;;;;3.95;0.80;;;;;;;10.32;100.00;102579.06;4876897;29;20443;-79
2022/04/28 18:56:41;;;;;;;3.50;0.68;;;;;;;10.08;100.00;102571.59;4864079;29;20051;-80
2022/04/28 18:59:09;;;;;;;4.75;1.00;;;;;;;10.00;100.00;102567.94;4877622;29;20973;-79
2022/04/28 19:01:37;;;;;;;2.47;1.10;;;;;;;10.03;100.00;102573.91;4876059;29;20045;-78
2022/04/28 19:04:03;;;;;;;7.13;1.00;;;;;;;9.95;100.00;102571.09;4879501;29;20040;-79
2022/04/28 19:06:31;;;;;;;6.00;0.77;;;;;;;9.54;100.00;102506.16;4883089;29;20110;-80
2022/04/28 19:08:57;;;;;;;3.83;0.93;;;;;;;9.94;100.00;102572.13;4878094;29;20033;-79
2022/04/28 19:11:23;;;;;;;5.00;1.00;;;;;;;9.95;100.00;102591.78;4879347;29;20080;-79
2022/04/28 19:13:48;;;;;;;7.15;0.70;;;;;;;9.89;100.00;102599.44;4878482;29;20360;-79
2022/04/28 19:16:14;;;;;;;3.70;1.00;;;;;;;9.80;100.00;102600.38;4875029;29;20605;-79
2022/04/28 19:18:39;;;;;;;3.80;1.10;;;;;;;9.68;100.00;102585.44;4876298;29;20044;-79
2022/04/28 19:21:05;;;;;;;5.47;0.70;;;;;;;9.74;100.00;102598.28;4875176;29;20057;-78
2022/04/28 19:23:30;;;;;;;5.40;0.63;;;;;;;9.71;100.00;102612.00;4876860;29;20041;-79
2022/04/28 19:25:56;;;;;;;4.32;0.80;;;;;;;9.24;100.00;102544.03;4862547;29;20033;-78
2022/04/28 19:28:23;;;;;;;2.65;0.57;;;;;;;9.58;100.00;102608.81;4862841;29;20025;-78
2022/04/28 19:30:49;;;;;;;4.45;0.70;;;;;;;9.39;100.00;102589.09;4879250;29;20477;-79
2022/04/28 19:33:14;;;;;;;1.77;0.55;;;;;;;9.41;100.00;102605.91;4883453;29;20093;-79
2022/04/28 19:35:42;;;;;;;3.10;0.70;;;;;;;9.25;100.00;102597.63;4880439;29;20067;-78
2022/04/28 19:38:08;;;;;;;4.05;0.90;;;;;;;9.20;100.00;102596.38;4878365;29;20029;-79
2022/04/28 19:40:34;;;;;;;4.32;0.75;;;;;;;9.18;100.00;102609.94;4883734;29;20139;-79
2022/04/28 19:42:59;;;;;;;6.20;2.22;;;;;;;9.05;100.00;102599.53;4881033;29;20556;-80
2022/04/28 19:45:25;;;;;;;3.20;0.80;;;;;;;9.06;100.00;102609.25;4886744;29;20391;-80
2022/04/28 19:47:50;;;;;;;4.25;0.80;;;;;;;9.03;100.00;102603.34;4894325;29;20048;-81
2022/04/28 19:50:16;;;;;;;4.75;0.80;;;;;;;9.06;100.00;102611.09;4884435;29;20040;-80
2022/04/28 19:52:42;;;;;;;2.58;0.68;;;;;;;8.89;100.00;102591.22;4883157;29;20017;-80
2022/04/28 19:55:08;;;;;;;5.22;0.70;;;;;;;8.93;100.00;102608.72;4866732;29;20044;-79
2022/04/28 19:57:36;;;;;;;3.03;0.57;;;;;;;8.87;100.00;102610.16;4864204;29;20029;-79
2022/04/28 20:00:03;;;;;;;3.42;0.50;;;;;;;8.85;100.00;102612.13;4882176;29;20103;-79
2022/04/28 20:02:29;;;;;;;3.13;0.63;;;;;;;8.87;100.00;102612.84;4887881;29;20025;-80
2022/04/28 20:04:54;;;;;;;4.75;0.68;;;;;;;8.70;100.00;102600.13;4879556;29;20491;-80
2022/04/28 20:07:20;;;;;;;4.82;0.80;;;;;;;8.80;100.00;102617.06;4890065;29;20040;-81
2022/04/28 20:10:07;;;;;;;4.00;0.80;;;;;;;8.75;100.00;102622.03;4893354;29;20026;-79
2022/04/28 20:12:33;;;;;;;4.85;0.60;;;;;;;8.59;100.00;102616.41;4891416;29;20035;-79
2022/04/28 20:14:59;;;;;;;6.85;2.90;;;;;;;8.56;100.00;102627.41;4873913;29;20084;-80
2022/04/28 20:17:24;;;;;;;8.43;2.75;;;;;;;8.43;100.00;102625.00;4870807;29;20123;-79
2022/04/28 20:19:50;;;;;;;11.70;2.40;;;;;;;8.32;100.00;102625.94;4884379;29;20064;-81
2022/04/28 20:22:19;;;;;;;7.13;1.13;;;;;;;8.09;100.00;102611.94;4882549;29;20503;-80
2022/04/28 20:24:44;;;;;;;4.20;1.02;;;;;;;8.11;100.00;102630.56;4881063;29;20029;-80
2022/04/28 20:27:11;;;;;;;7.68;1.10;;;;;;;7.95;100.00;102618.56;4876280;29;20037;-79
2022/04/28 20:29:37;;;;;;;5.30;1.10;;;;;;;7.92;100.00;102624.19;4885515;29;20089;-81
2022/04/28 20:32:03;;;;;;;4.88;1.05;;;;;;;7.86;100.00;102616.69;4881921;29;20069;-80
2022/04/28 20:34:30;;;;;;;4.40;0.85;;;;;;;7.85;100.00;102620.38;4881659;29;20416;-80
2022/04/28 20:36:56;;;;;;;4.72;0.90;;;;;;;7.80;100.00;102629.78;4884974;29;20060;-80
2022/04/28 20:39:21;;;;;;;4.35;0.80;;;;;;;7.75;100.00;102627.53;4890838;29;20056;-80
2022/04/28 20:41:52;;;;;;;5.50;1.10;;;;;;;7.72;100.00;102625.13;4897288;29;20044;-80
2022/04/28 20:44:18;;;;;;;3.75;0.80;;;;;;;7.67;100.00;102628.19;4884607;29;20511;-80
2022/04/28 20:46:45;;;;;;;3.88;0.85;;;;;;;7.67;100.00;102627.34;4884796;29;20455;-80
2022/04/28 20:49:12;;;;;;;6.50;0.88;;;;;;;7.64;100.00;102627.59;4881894;29;20039;-80
2022/04/28 20:51:37;;;;;;;2.33;0.70;;;;;;;7.61;100.00;102620.69;4882361;29;20036;-81
2022/04/28 20:54:03;;;;;;;5.95;0.70;;;;;;;7.52;100.00;102625.03;4886274;29;20029;-80
2022/04/28 20:56:29;;;;;;;3.85;0.75;;;;;;;7.25;100.00;102606.00;4869363;29;20029;-81
2022/04/28 20:58:55;;;;;;;6.55;0.98;;;;;;;7.33;100.00;102624.09;4885183;29;20025;-80
2022/04/28 21:01:20;;;;;;;6.63;0.90;;;;;;;7.26;100.00;102629.97;4868740;29;20415;-80
2022/04/28 21:03:46;;;;;;;3.05;0.98;;;;;;;7.06;100.00;102604.94;4884687;29;20033;-79
2022/04/28 21:06:11;;;;;;;3.78;0.70;;;;;;;7.08;100.00;102618.16;4888467;29;20403;-79
2022/04/28 21:08:37;;;;;;;2.53;0.90;;;;;;;6.88;100.00;102617.19;4887472;29;20057;-81
2022/04/28 21:11:02;;;;;;;7.13;1.27;;;;;;;6.96;100.00;102622.75;4886060;29;20080;-81
2022/04/28 21:13:28;;;;;;;5.95;1.20;;;;;;;6.80;100.00;102611.66;4857810;29;20043;-80
2022/04/28 21:15:54;;;;;;;6.32;0.95;;;;;;;7.00;100.00;102624.19;4885810;29;20033;-80
2022/04/28 21:18:21;;;;;;;4.03;1.10;;;;;;;7.10;100.00;102615.38;4885234;29;20021;-81
2022/04/28 21:20:47;;;;;;;5.80;0.90;;;;;;;7.23;100.00;102621.38;4887688;29;20055;-80
2022/04/28 21:23:12;;;;;;;9.30;1.30;;;;;;;7.26;100.00;102607.72;4883266;29;20037;-80
2022/04/28 21:25:38;;;;;;;4.30;1.15;;;;;;;7.36;100.00;102616.66;4885828;29;20033;-80
2022/04/28 21:28:05;;;;;;;10.20;1.10;;;;;;;7.43;100.00;102615.13;4885958;29;20025;-80
2022/04/28 21:30:31;;;;;;;7.55;1.65;;;;;;;7.49;100.00;102614.59;4867482;29;20037;-80
2022/04/28 21:32:57;;;;;;;8.50;1.10;;;;;;;7.39;100.00;102602.16;4884045;29;20025;-82
2022/04/28 21:35:23;;;;;;;7.22;1.30;;;;;;;7.39;100.00;102619.06;4872835;29;20081;-81
2022/04/28 21:37:49;;;;;;;8.02;2.17;;;;;;;7.16;100.00;102625.56;4889048;29;20115;-80
2022/04/28 21:40:17;;;;;;;6.65;1.20;;;;;;;7.01;100.00;102630.38;4885522;29;20036;-80
2022/04/28 21:42:43;;;;;;;5.53;1.20;;;;;;;6.96;100.00;102628.09;4886554;29;20033;-80
2022/04/28 21:45:09;;;;;;;5.43;1.00;;;;;;;6.84;100.00;102621.13;4886743;29;20040;-80
2022/04/28 21:47:36;;;;;;;9.25;1.25;;;;;;;6.85;100.00;102629.97;4869998;29;20048;-81
2022/04/28 21:50:05;;;;;;;8.02;1.27;;;;;;;6.89;100.00;102631.41;4884665;29;20092;-81
2022/04/28 21:52:31;;;;;;;8.90;1.38;;;;;;;6.89;100.00;102632.28;4885318;29;20056;-80
2022/04/28 21:54:57;;;;;;;6.68;1.25;;;;;;;7.00;100.00;102632.22;4897112;29;20053;-80
2022/04/28 21:57:23;;;;;;;7.63;1.35;;;;;;;7.03;100.00;102631.13;4893731;29;20025;-80
2022/04/28 21:59:49;;;;;;;4.93;1.10;;;;;;;6.97;100.00;102621.78;4884531;29;20036;-80
2022/04/28 22:02:14;;;;;;;9.73;1.50;;;;;;;6.94;100.00;102634.56;4883184;29;20029;-81
2022/04/28 22:12:53;;;;;;;7.78;1.48;;;;;;;6.59;100.00;102635.72;4883042;29;20044;-80
2022/04/28 22:15:18;;;;;;;4.00;1.13;;;;;;;6.45;100.00;102622.63;4885292;29;20036;-81
2022/04/28 22:17:44;;;;;;;5.50;1.38;;;;;;;6.51;100.00;102641.69;4884073;29;20539;-80
2022/04/28 22:20:10;;;;;;;6.57;1.67;;;;;;;6.50;100.00;102637.31;4882880;29;20063;-80
2022/04/28 22:22:37;;;;;;;6.85;1.60;;;;;;;6.45;100.00;102631.50;4867919;29;20033;-81
2022/04/28 22:25:08;;;;;;;8.65;1.60;;;;;;;6.37;100.00;102620.59;4884823;29;20025;-80
2022/04/28 22:27:33;;;;;;;7.88;1.40;;;;;;;6.48;100.00;102630.41;4885090;29;20044;-81
2022/04/28 22:30:10;;;;;;;9.07;1.67;;;;;;;6.41;100.00;102624.72;4885010;29;20029;-80
2022/04/28 22:32:38;;;;;;;12.77;1.63;;;;;;;6.42;100.00;102638.94;4868133;29;20108;-80
2022/04/28 22:35:09;;;;;;;6.00;1.65;;;;;;;6.20;100.00;102645.22;4884241;29;20033;-80
2022/04/28 22:37:35;;;;;;;5.10;1.23;;;;;;;5.88;100.00;102646.78;4880510;29;20052;-80
2022/04/28 22:40:01;;;;;;;12.15;1.27;;;;;;;5.73;100.00;102649.84;4883023;29;20104;-80
2022/04/28 22:42:27;;;;;;;3.05;1.25;;;;;;;5.72;100.00;102650.81;4882385;29;20037;-80
2022/04/28 22:44:53;;;;;;;7.72;1.67;;;;;;;5.83;100.00;102656.16;4884539;29;20036;-81
2022/04/28 22:47:18;;;;;;;12.85;2.28;;;;;;;5.85;100.00;102648.84;4890630;29;20029;-80
2022/04/28 22:49:43;;;;;;;10.52;1.67;;;;;;;5.82;100.00;102654.44;4887844;29;20033;-80
2022/04/28 22:52:09;;;;;;;7.30;1.70;;;;;;;5.63;100.00;102631.88;4885697;29;20071;-80